This is the latest recevied weather packets stored in our database for station/object DB0NLS-15. If no packets are shown the sender has not sent any weather packets the latest 10 day(s).
| Time | Temp. | Humidity | Pressure | Rain* | Wind** | Luminosity | Snow |
|---|---|---|---|---|---|---|---|
| 1777644362 | 21.67° C | 34% | 1015.3 hPa | 0 mm | - | - | - |
| 1777643759 | 22.22° C | 34% | 1015.4 hPa | 0 mm | - | - | - |
| 1777643157 | 21.67° C | 34% | 1015.4 hPa | 0 mm | - | - | - |
| 1777642554 | 21.67° C | 34% | 1015.5 hPa | 0 mm | - | - | - |
| 1777641952 | 21.11° C | 34% | 1015.7 hPa | 0 mm | - | - | - |
| 1777641349 | 21.67° C | 34% | 1015.7 hPa | 0 mm | - | - | - |
| 1777640746 | 21.11° C | 35% | 1015.8 hPa | 0 mm | - | - | - |
| 1777640144 | 21.67° C | 35% | 1016 hPa | 0 mm | - | - | - |
| 1777638938 | 21.11° C | 35% | 1016.1 hPa | 0 mm | - | - | - |
| 1777638336 | 21.11° C | 36% | 1016.3 hPa | 0 mm | - | - | - |
| 1777637733 | 21.11° C | 35% | 1016.4 hPa | 0 mm | - | - | - |
| 1777635322 | 20.56° C | 38% | 1016.6 hPa | 0 mm | - | - | - |
| 1777634720 | 20.56° C | 39% | 1016.8 hPa | 0 mm | - | - | - |
| 1777634117 | 20° C | 40% | 1016.9 hPa | 0 mm | - | - | - |
| 1777633515 | 20.56° C | 40% | 1016.9 hPa | 0 mm | - | - | - |
| 1777632972 | 19.44° C | 40% | 1017 hPa | 0 mm | - | - | - |
| 1777632369 | 19.44° C | 40% | 1017.1 hPa | 0 mm | - | - | - |
| 1777631767 | 18.89° C | 42% | 1017.3 hPa | 0 mm | - | - | - |
| 1777631164 | 19.44° C | 41% | 1017.3 hPa | 0 mm | - | - | - |
| 1777630562 | 18.89° C | 42% | 1017.4 hPa | 0 mm | - | - | - |
| 1777629959 | 18.33° C | 44% | 1017.4 hPa | 0 mm | - | - | - |
| 1777628754 | 17.78° C | 46% | 1017.7 hPa | 0 mm | - | - | - |
| 1777628151 | 17.78° C | 45% | 1017.8 hPa | 0 mm | - | - | - |
| 1777627549 | 17.78° C | 46% | 1017.9 hPa | 0 mm | - | - | - |
| 1777626946 | 18.33° C | 44% | 1017.9 hPa | 0 mm | - | - | - |
* Rain latest hour (hover to see other rain measurements)
** Current wind speed in m/s (hover to see current wind gust speed)